sensor_id;sensor_type;location;lat;lon;timestamp;temperature;humidity
14057;DHT22;7103;54.300;10.180;2023-03-17T00:01:53;6.90;1.00
14057;DHT22;7103;54.300;10.180;2023-03-17T00:04:25;6.90;1.00
14057;DHT22;7103;54.300;10.180;2023-03-17T00:06:53;6.90;1.00
14057;DHT22;7103;54.300;10.180;2023-03-17T00:09:20;6.90;1.00
14057;DHT22;7103;54.300;10.180;2023-03-17T00:11:48;6.90;1.00
14057;DHT22;7103;54.300;10.180;2023-03-17T00:14:17;6.90;1.00
14057;DHT22;7103;54.300;10.180;2023-03-17T00:16:47;6.90;1.00
14057;DHT22;7103;54.300;10.180;2023-03-17T00:19:17;6.90;1.00
14057;DHT22;7103;54.300;10.180;2023-03-17T00:21:44;6.80;1.00
14057;DHT22;7103;54.300;10.180;2023-03-17T00:24:12;6.70;1.00
14057;DHT22;7103;54.300;10.180;2023-03-17T00:26:41;6.80;1.00
14057;DHT22;7103;54.300;10.180;2023-03-17T00:29:09;6.80;1.00
14057;DHT22;7103;54.300;10.180;2023-03-17T00:31:36;6.70;1.00
14057;DHT22;7103;54.300;10.180;2023-03-17T00:34:04;6.60;1.00
14057;DHT22;7103;54.300;10.180;2023-03-17T00:36:33;6.70;1.00
14057;DHT22;7103;54.300;10.180;2023-03-17T00:39:00;6.60;1.00
14057;DHT22;7103;54.300;10.180;2023-03-17T00:41:27;6.60;1.00
14057;DHT22;7103;54.300;10.180;2023-03-17T00:43:55;6.50;1.00
14057;DHT22;7103;54.300;10.180;2023-03-17T00:46:28;6.40;1.00
14057;DHT22;7103;54.300;10.180;2023-03-17T00:49:24;6.40;1.00
14057;DHT22;7103;54.300;10.180;2023-03-17T00:51:50;6.40;1.00
14057;DHT22;7103;54.300;10.180;2023-03-17T00:54:18;6.40;1.00
14057;DHT22;7103;54.300;10.180;2023-03-17T00:56:47;6.20;1.00
14057;DHT22;7103;54.300;10.180;2023-03-17T00:59:25;6.20;1.00
14057;DHT22;7103;54.300;10.180;2023-03-17T01:01:53;6.20;1.00
14057;DHT22;7103;54.300;10.180;2023-03-17T01:04:21;6.20;1.00
14057;DHT22;7103;54.300;10.180;2023-03-17T01:06:49;6.30;1.00
14057;DHT22;7103;54.300;10.180;2023-03-17T01:09:18;6.10;1.00
14057;DHT22;7103;54.300;10.180;2023-03-17T01:11:46;6.10;1.00
14057;DHT22;7103;54.300;10.180;2023-03-17T01:14:14;6.10;1.00
14057;DHT22;7103;54.300;10.180;2023-03-17T01:16:42;6.10;1.00
14057;DHT22;7103;54.300;10.180;2023-03-17T01:19:11;6.00;1.00
14057;DHT22;7103;54.300;10.180;2023-03-17T01:21:39;6.00;1.00
14057;DHT22;7103;54.300;10.180;2023-03-17T01:24:07;6.00;1.00
14057;DHT22;7103;54.300;10.180;2023-03-17T01:26:35;6.00;1.00
14057;DHT22;7103;54.300;10.180;2023-03-17T01:29:02;6.00;1.00
14057;DHT22;7103;54.300;10.180;2023-03-17T01:31:30;6.00;1.00
14057;DHT22;7103;54.300;10.180;2023-03-17T01:33:57;6.10;1.00
14057;DHT22;7103;54.300;10.180;2023-03-17T01:36:24;6.00;1.00
14057;DHT22;7103;54.300;10.180;2023-03-17T01:38:51;6.10;1.00
14057;DHT22;7103;54.300;10.180;2023-03-17T01:41:18;6.00;1.00
14057;DHT22;7103;54.300;10.180;2023-03-17T01:43:46;5.90;1.00
14057;DHT22;7103;54.300;10.180;2023-03-17T01:46:26;6.00;1.00
14057;DHT22;7103;54.300;10.180;2023-03-17T01:59:52;6.00;1.00
14057;DHT22;7103;54.300;10.180;2023-03-17T02:02:23;6.00;1.00
14057;DHT22;7103;54.300;10.180;2023-03-17T02:04:51;5.90;1.00
14057;DHT22;7103;54.300;10.180;2023-03-17T02:07:19;5.90;1.00
14057;DHT22;7103;54.300;10.180;2023-03-17T02:09:47;5.90;1.00
14057;DHT22;7103;54.300;10.180;2023-03-17T02:12:15;5.90;1.00
14057;DHT22;7103;54.300;10.180;2023-03-17T02:14:42;5.80;1.00
14057;DHT22;7103;54.300;10.180;2023-03-17T02:17:09;5.80;1.00
14057;DHT22;7103;54.300;10.180;2023-03-17T02:19:36;5.70;1.00
14057;DHT22;7103;54.300;10.180;2023-03-17T02:22:04;5.70;1.00
14057;DHT22;7103;54.300;10.180;2023-03-17T02:24:48;5.70;1.00
14057;DHT22;7103;54.300;10.180;2023-03-17T02:27:23;5.70;1.00
14057;DHT22;7103;54.300;10.180;2023-03-17T02:29:51;5.80;1.00
14057;DHT22;7103;54.300;10.180;2023-03-17T02:32:18;5.70;1.00
14057;DHT22;7103;54.300;10.180;2023-03-17T02:34:47;5.70;1.00
14057;DHT22;7103;54.300;10.180;2023-03-17T02:37:15;5.70;1.00
14057;DHT22;7103;54.300;10.180;2023-03-17T02:39:43;5.60;1.00
14057;DHT22;7103;54.300;10.180;2023-03-17T02:42:10;5.70;1.00
14057;DHT22;7103;54.300;10.180;2023-03-17T02:44:38;5.60;1.00
14057;DHT22;7103;54.300;10.180;2023-03-17T02:47:06;5.60;1.00
14057;DHT22;7103;54.300;10.180;2023-03-17T02:49:35;5.50;1.00
14057;DHT22;7103;54.300;10.180;2023-03-17T02:52:03;5.60;1.00
14057;DHT22;7103;54.300;10.180;2023-03-17T02:54:30;5.60;1.00
14057;DHT22;7103;54.300;10.180;2023-03-17T02:56:58;5.60;1.00
14057;DHT22;7103;54.300;10.180;2023-03-17T02:59:25;5.60;1.00
14057;DHT22;7103;54.300;10.180;2023-03-17T03:01:52;5.50;1.00
14057;DHT22;7103;54.300;10.180;2023-03-17T03:04:19;5.50;1.00
14057;DHT22;7103;54.300;10.180;2023-03-17T03:06:46;5.50;1.00
14057;DHT22;7103;54.300;10.180;2023-03-17T03:09:13;5.50;1.00
14057;DHT22;7103;54.300;10.180;2023-03-17T03:11:40;5.60;1.00
14057;DHT22;7103;54.300;10.180;2023-03-17T03:14:08;5.60;1.00
14057;DHT22;7103;54.300;10.180;2023-03-17T03:16:35;5.60;1.00
14057;DHT22;7103;54.300;10.180;2023-03-17T03:19:03;5.70;1.00
14057;DHT22;7103;54.300;10.180;2023-03-17T03:21:30;5.60;1.00
14057;DHT22;7103;54.300;10.180;2023-03-17T03:23:57;5.60;1.00
14057;DHT22;7103;54.300;10.180;2023-03-17T03:26:24;5.60;1.00
14057;DHT22;7103;54.300;10.180;2023-03-17T03:28:51;5.60;1.00
14057;DHT22;7103;54.300;10.180;2023-03-17T03:31:18;5.60;1.00
14057;DHT22;7103;54.300;10.180;2023-03-17T03:33:45;5.60;1.00
14057;DHT22;7103;54.300;10.180;2023-03-17T03:36:12;5.70;1.00
14057;DHT22;7103;54.300;10.180;2023-03-17T03:38:39;5.70;1.00
14057;DHT22;7103;54.300;10.180;2023-03-17T03:41:07;5.70;1.00
14057;DHT22;7103;54.300;10.180;2023-03-17T03:43:35;5.70;1.00
14057;DHT22;7103;54.300;10.180;2023-03-17T03:46:02;5.80;1.00
14057;DHT22;7103;54.300;10.180;2023-03-17T03:48:30;5.70;1.00
14057;DHT22;7103;54.300;10.180;2023-03-17T03:50:59;5.80;1.00
14057;DHT22;7103;54.300;10.180;2023-03-17T03:53:27;5.70;1.00
14057;DHT22;7103;54.300;10.180;2023-03-17T03:55:54;5.70;1.00
14057;DHT22;7103;54.300;10.180;2023-03-17T03:58:22;5.80;1.00
14057;DHT22;7103;54.300;10.180;2023-03-17T04:00:49;5.70;1.00
14057;DHT22;7103;54.300;10.180;2023-03-17T04:03:16;5.70;1.00
14057;DHT22;7103;54.300;10.180;2023-03-17T04:05:43;5.70;1.00
14057;DHT22;7103;54.300;10.180;2023-03-17T04:08:09;5.60;1.00
14057;DHT22;7103;54.300;10.180;2023-03-17T04:10:37;5.70;1.00
14057;DHT22;7103;54.300;10.180;2023-03-17T04:13:04;5.80;1.00
14057;DHT22;7103;54.300;10.180;2023-03-17T04:15:31;5.80;1.00
14057;DHT22;7103;54.300;10.180;2023-03-17T04:17:58;5.70;1.00
14057;DHT22;7103;54.300;10.180;2023-03-17T04:20:25;5.80;1.00
14057;DHT22;7103;54.300;10.180;2023-03-17T04:22:52;5.80;1.00
14057;DHT22;7103;54.300;10.180;2023-03-17T04:25:19;5.90;1.00
14057;DHT22;7103;54.300;10.180;2023-03-17T04:27:46;5.80;1.00
14057;DHT22;7103;54.300;10.180;2023-03-17T04:30:13;5.80;1.00
14057;DHT22;7103;54.300;10.180;2023-03-17T04:32:42;5.80;1.00
14057;DHT22;7103;54.300;10.180;2023-03-17T04:35:18;5.90;1.00
14057;DHT22;7103;54.300;10.180;2023-03-17T04:37:45;5.80;1.00
14057;DHT22;7103;54.300;10.180;2023-03-17T04:40:13;5.80;1.00
14057;DHT22;7103;54.300;10.180;2023-03-17T04:42:40;5.80;1.00
14057;DHT22;7103;54.300;10.180;2023-03-17T04:45:09;5.80;1.00
14057;DHT22;7103;54.300;10.180;2023-03-17T04:47:36;5.80;1.00
14057;DHT22;7103;54.300;10.180;2023-03-17T04:50:05;5.70;1.00
14057;DHT22;7103;54.300;10.180;2023-03-17T04:52:34;5.90;1.00
14057;DHT22;7103;54.300;10.180;2023-03-17T04:55:03;5.70;1.00
14057;DHT22;7103;54.300;10.180;2023-03-17T04:57:30;5.70;1.00
14057;DHT22;7103;54.300;10.180;2023-03-17T04:59:57;5.70;1.00
14057;DHT22;7103;54.300;10.180;2023-03-17T05:02:24;5.70;1.00
14057;DHT22;7103;54.300;10.180;2023-03-17T05:04:51;5.70;1.00
14057;DHT22;7103;54.300;10.180;2023-03-17T05:07:19;5.60;1.00
14057;DHT22;7103;54.300;10.180;2023-03-17T05:09:45;5.60;1.00
14057;DHT22;7103;54.300;10.180;2023-03-17T05:12:13;5.60;1.00
14057;DHT22;7103;54.300;10.180;2023-03-17T05:14:40;5.60;1.00
14057;DHT22;7103;54.300;10.180;2023-03-17T05:17:07;5.70;1.00
14057;DHT22;7103;54.300;10.180;2023-03-17T05:19:34;5.70;1.00
14057;DHT22;7103;54.300;10.180;2023-03-17T05:22:01;5.80;1.00
14057;DHT22;7103;54.300;10.180;2023-03-17T05:24:28;5.70;1.00
14057;DHT22;7103;54.300;10.180;2023-03-17T05:26:54;5.60;1.00
14057;DHT22;7103;54.300;10.180;2023-03-17T05:29:21;5.60;1.00
14057;DHT22;7103;54.300;10.180;2023-03-17T05:31:48;5.50;1.00
14057;DHT22;7103;54.300;10.180;2023-03-17T05:34:15;5.50;1.00
14057;DHT22;7103;54.300;10.180;2023-03-17T05:36:43;5.50;1.00
14057;DHT22;7103;54.300;10.180;2023-03-17T05:39:10;5.50;1.00
14057;DHT22;7103;54.300;10.180;2023-03-17T05:41:40;5.40;1.00
14057;DHT22;7103;54.300;10.180;2023-03-17T05:44:07;5.40;1.00
14057;DHT22;7103;54.300;10.180;2023-03-17T05:46:34;5.40;1.00
14057;DHT22;7103;54.300;10.180;2023-03-17T05:49:01;5.40;1.00
14057;DHT22;7103;54.300;10.180;2023-03-17T05:51:28;5.40;1.00
14057;DHT22;7103;54.300;10.180;2023-03-17T05:53:55;5.40;1.00
14057;DHT22;7103;54.300;10.180;2023-03-17T05:56:23;5.40;1.00
14057;DHT22;7103;54.300;10.180;2023-03-17T05:58:51;5.40;1.00
14057;DHT22;7103;54.300;10.180;2023-03-17T06:01:18;5.40;1.00
14057;DHT22;7103;54.300;10.180;2023-03-17T06:03:45;5.40;1.00
14057;DHT22;7103;54.300;10.180;2023-03-17T06:06:12;5.40;1.00
14057;DHT22;7103;54.300;10.180;2023-03-17T06:08:40;5.40;1.00
14057;DHT22;7103;54.300;10.180;2023-03-17T06:11:07;5.40;1.00
14057;DHT22;7103;54.300;10.180;2023-03-17T06:13:34;5.50;1.00
14057;DHT22;7103;54.300;10.180;2023-03-17T06:16:01;5.50;1.00
14057;DHT22;7103;54.300;10.180;2023-03-17T06:18:28;5.40;1.00
14057;DHT22;7103;54.300;10.180;2023-03-17T06:20:55;5.50;1.00
14057;DHT22;7103;54.300;10.180;2023-03-17T06:23:22;5.50;1.00
14057;DHT22;7103;54.300;10.180;2023-03-17T06:25:49;5.60;1.00
14057;DHT22;7103;54.300;10.180;2023-03-17T06:28:16;5.60;1.00
14057;DHT22;7103;54.300;10.180;2023-03-17T06:30:44;5.70;1.00
14057;DHT22;7103;54.300;10.180;2023-03-17T06:33:11;5.70;1.00
14057;DHT22;7103;54.300;10.180;2023-03-17T06:35:39;5.70;1.00
14057;DHT22;7103;54.300;10.180;2023-03-17T06:38:06;5.80;1.00
14057;DHT22;7103;54.300;10.180;2023-03-17T06:40:33;5.80;1.00
14057;DHT22;7103;54.300;10.180;2023-03-17T06:43:00;5.90;1.00
14057;DHT22;7103;54.300;10.180;2023-03-17T06:45:27;5.90;1.00
14057;DHT22;7103;54.300;10.180;2023-03-17T06:47:55;6.00;1.00
14057;DHT22;7103;54.300;10.180;2023-03-17T06:50:22;6.00;1.00
14057;DHT22;7103;54.300;10.180;2023-03-17T06:52:49;6.20;1.00
14057;DHT22;7103;54.300;10.180;2023-03-17T06:55:16;6.20;1.00
14057;DHT22;7103;54.300;10.180;2023-03-17T06:57:43;6.30;1.00
14057;DHT22;7103;54.300;10.180;2023-03-17T07:00:11;6.30;1.00
14057;DHT22;7103;54.300;10.180;2023-03-17T07:02:39;6.40;1.00
14057;DHT22;7103;54.300;10.180;2023-03-17T07:05:07;6.60;1.00
14057;DHT22;7103;54.300;10.180;2023-03-17T07:07:34;6.60;1.00
14057;DHT22;7103;54.300;10.180;2023-03-17T07:10:01;6.80;1.00
14057;DHT22;7103;54.300;10.180;2023-03-17T07:12:28;6.80;1.00
14057;DHT22;7103;54.300;10.180;2023-03-17T07:14:55;6.70;1.00
14057;DHT22;7103;54.300;10.180;2023-03-17T07:17:24;6.70;1.00
14057;DHT22;7103;54.300;10.180;2023-03-17T07:19:51;6.90;1.00
14057;DHT22;7103;54.300;10.180;2023-03-17T07:22:18;6.90;1.00
14057;DHT22;7103;54.300;10.180;2023-03-17T07:24:45;6.80;1.00
14057;DHT22;7103;54.300;10.180;2023-03-17T07:27:15;6.90;1.00
14057;DHT22;7103;54.300;10.180;2023-03-17T07:29:42;6.90;1.00
14057;DHT22;7103;54.300;10.180;2023-03-17T07:32:09;7.10;1.00
14057;DHT22;7103;54.300;10.180;2023-03-17T07:34:36;7.10;1.00
14057;DHT22;7103;54.300;10.180;2023-03-17T07:37:04;7.20;1.00
14057;DHT22;7103;54.300;10.180;2023-03-17T07:39:32;7.10;1.00
14057;DHT22;7103;54.300;10.180;2023-03-17T07:41:59;7.10;1.00
14057;DHT22;7103;54.300;10.180;2023-03-17T07:44:26;7.20;1.00
14057;DHT22;7103;54.300;10.180;2023-03-17T07:46:54;7.30;1.00
14057;DHT22;7103;54.300;10.180;2023-03-17T07:49:22;7.40;1.00
14057;DHT22;7103;54.300;10.180;2023-03-17T07:52:07;7.70;1.00
14057;DHT22;7103;54.300;10.180;2023-03-17T07:54:35;7.60;1.00
14057;DHT22;7103;54.300;10.180;2023-03-17T07:57:06;7.70;1.00
14057;DHT22;7103;54.300;10.180;2023-03-17T07:59:33;7.80;1.00
14057;DHT22;7103;54.300;10.180;2023-03-17T08:02:00;7.90;1.00
14057;DHT22;7103;54.300;10.180;2023-03-17T08:04:27;8.50;1.00
14057;DHT22;7103;54.300;10.180;2023-03-17T08:06:55;9.40;1.00
14057;DHT22;7103;54.300;10.180;2023-03-17T08:09:23;10.70;1.00
14057;DHT22;7103;54.300;10.180;2023-03-17T08:11:50;11.40;1.00
14057;DHT22;7103;54.300;10.180;2023-03-17T08:14:17;12.20;1.00
14057;DHT22;7103;54.300;10.180;2023-03-17T08:16:44;12.60;1.00
14057;DHT22;7103;54.300;10.180;2023-03-17T08:19:11;12.50;1.00
14057;DHT22;7103;54.300;10.180;2023-03-17T08:21:38;12.10;1.00
14057;DHT22;7103;54.300;10.180;2023-03-17T08:24:05;12.00;1.00
14057;DHT22;7103;54.300;10.180;2023-03-17T08:26:32;12.80;1.00
14057;DHT22;7103;54.300;10.180;2023-03-17T08:28:59;13.60;1.00
14057;DHT22;7103;54.300;10.180;2023-03-17T08:31:26;13.90;1.00
14057;DHT22;7103;54.300;10.180;2023-03-17T08:33:54;13.70;1.00
14057;DHT22;7103;54.300;10.180;2023-03-17T08:36:24;13.70;1.00
14057;DHT22;7103;54.300;10.180;2023-03-17T08:38:51;14.10;1.00
14057;DHT22;7103;54.300;10.180;2023-03-17T08:41:21;14.50;1.00
14057;DHT22;7103;54.300;10.180;2023-03-17T08:43:49;14.90;1.00
14057;DHT22;7103;54.300;10.180;2023-03-17T08:48:47;14.50;1.00
14057;DHT22;7103;54.300;10.180;2023-03-17T08:51:15;14.80;1.00
14057;DHT22;7103;54.300;10.180;2023-03-17T08:53:45;14.90;1.00
14057;DHT22;7103;54.300;10.180;2023-03-17T08:56:13;14.90;1.00
14057;DHT22;7103;54.300;10.180;2023-03-17T08:58:40;15.20;1.00
14057;DHT22;7103;54.300;10.180;2023-03-17T09:01:09;15.30;99.90
14057;DHT22;7103;54.300;10.180;2023-03-17T09:03:39;14.60;99.90
14057;DHT22;7103;54.300;10.180;2023-03-17T09:06:08;14.60;1.00
14057;DHT22;7103;54.300;10.180;2023-03-17T09:08:38;15.00;99.90
14057;DHT22;7103;54.300;10.180;2023-03-17T09:11:06;15.10;99.90
14057;DHT22;7103;54.300;10.180;2023-03-17T09:13:34;14.80;99.90
14057;DHT22;7103;54.300;10.180;2023-03-17T09:16:04;14.40;99.90
14057;DHT22;7103;54.300;10.180;2023-03-17T09:18:31;13.70;99.90
14057;DHT22;7103;54.300;10.180;2023-03-17T09:20:58;13.40;99.90
14057;DHT22;7103;54.300;10.180;2023-03-17T09:23:25;13.00;1.00
14057;DHT22;7103;54.300;10.180;2023-03-17T09:25:53;12.50;1.00
14057;DHT22;7103;54.300;10.180;2023-03-17T09:28:19;12.40;1.00
14057;DHT22;7103;54.300;10.180;2023-03-17T09:30:46;12.30;1.00
14057;DHT22;7103;54.300;10.180;2023-03-17T09:33:13;12.20;1.00
14057;DHT22;7103;54.300;10.180;2023-03-17T09:35:41;12.10;1.00
14057;DHT22;7103;54.300;10.180;2023-03-17T09:38:08;12.10;1.00
14057;DHT22;7103;54.300;10.180;2023-03-17T09:40:43;12.30;1.00
14057;DHT22;7103;54.300;10.180;2023-03-17T09:46:01;12.10;1.00
14057;DHT22;7103;54.300;10.180;2023-03-17T09:49:02;12.00;1.00
14057;DHT22;7103;54.300;10.180;2023-03-17T09:51:33;12.50;1.00
14057;DHT22;7103;54.300;10.180;2023-03-17T09:54:03;12.40;1.00
14057;DHT22;7103;54.300;10.180;2023-03-17T09:56:32;12.30;1.00
14057;DHT22;7103;54.300;10.180;2023-03-17T09:59:17;12.20;1.00
14057;DHT22;7103;54.300;10.180;2023-03-17T10:01:48;12.20;1.00
14057;DHT22;7103;54.300;10.180;2023-03-17T10:04:16;11.90;1.00
14057;DHT22;7103;54.300;10.180;2023-03-17T10:06:45;11.80;1.00
14057;DHT22;7103;54.300;10.180;2023-03-17T10:09:39;11.80;1.00
14057;DHT22;7103;54.300;10.180;2023-03-17T10:12:19;11.80;1.00
14057;DHT22;7103;54.300;10.180;2023-03-17T10:14:53;11.80;1.00
14057;DHT22;7103;54.300;10.180;2023-03-17T10:17:25;11.90;1.00
14057;DHT22;7103;54.300;10.180;2023-03-17T10:20:15;12.00;1.00
14057;DHT22;7103;54.300;10.180;2023-03-17T10:22:52;11.90;1.00
14057;DHT22;7103;54.300;10.180;2023-03-17T10:25:23;12.00;1.00
14057;DHT22;7103;54.300;10.180;2023-03-17T10:30:31;12.30;1.00
14057;DHT22;7103;54.300;10.180;2023-03-17T10:33:03;12.30;1.00
14057;DHT22;7103;54.300;10.180;2023-03-17T10:35:33;12.10;1.00
14057;DHT22;7103;54.300;10.180;2023-03-17T10:38:18;12.00;1.00
14057;DHT22;7103;54.300;10.180;2023-03-17T10:41:00;12.20;1.00
14057;DHT22;7103;54.300;10.180;2023-03-17T10:43:34;12.30;1.00
14057;DHT22;7103;54.300;10.180;2023-03-17T10:46:04;12.40;1.00
14057;DHT22;7103;54.300;10.180;2023-03-17T10:48:36;12.30;1.00
14057;DHT22;7103;54.300;10.180;2023-03-17T10:51:08;12.50;1.00
14057;DHT22;7103;54.300;10.180;2023-03-17T10:53:40;12.70;1.00
14057;DHT22;7103;54.300;10.180;2023-03-17T10:56:19;12.80;1.00
14057;DHT22;7103;54.300;10.180;2023-03-17T10:58:49;13.10;1.00
14057;DHT22;7103;54.300;10.180;2023-03-17T11:03:56;13.20;1.00
14057;DHT22;7103;54.300;10.180;2023-03-17T11:06:37;13.40;1.00
14057;DHT22;7103;54.300;10.180;2023-03-17T11:09:10;13.60;1.00
14057;DHT22;7103;54.300;10.180;2023-03-17T11:11:47;13.80;1.00
14057;DHT22;7103;54.300;10.180;2023-03-17T11:14:16;13.90;1.00
14057;DHT22;7103;54.300;10.180;2023-03-17T11:17:02;13.50;1.00
14057;DHT22;7103;54.300;10.180;2023-03-17T11:22:03;13.70;1.00
14057;DHT22;7103;54.300;10.180;2023-03-17T11:24:50;13.80;1.00
14057;DHT22;7103;54.300;10.180;2023-03-17T11:27:31;13.80;1.00
14057;DHT22;7103;54.300;10.180;2023-03-17T11:30:26;13.90;1.00
14057;DHT22;7103;54.300;10.180;2023-03-17T11:50:00;13.40;1.00
14057;DHT22;7103;54.300;10.180;2023-03-17T11:58:17;13.30;1.00
14057;DHT22;7103;54.300;10.180;2023-03-17T12:00:50;13.40;1.00
14057;DHT22;7103;54.300;10.180;2023-03-17T12:06:17;13.50;1.00
14057;DHT22;7103;54.300;10.180;2023-03-17T12:08:51;13.50;1.00
14057;DHT22;7103;54.300;10.180;2023-03-17T12:11:25;13.60;1.00
14057;DHT22;7103;54.300;10.180;2023-03-17T12:13:59;13.80;1.00
14057;DHT22;7103;54.300;10.180;2023-03-17T12:16:40;14.10;1.00
14057;DHT22;7103;54.300;10.180;2023-03-17T12:19:12;14.50;1.00
14057;DHT22;7103;54.300;10.180;2023-03-17T12:21:54;14.70;1.00
14057;DHT22;7103;54.300;10.180;2023-03-17T12:27:02;15.40;1.00
14057;DHT22;7103;54.300;10.180;2023-03-17T12:29:42;15.70;1.00
14057;DHT22;7103;54.300;10.180;2023-03-17T12:32:40;15.80;1.00
14057;DHT22;7103;54.300;10.180;2023-03-17T12:35:36;15.80;1.00
14057;DHT22;7103;54.300;10.180;2023-03-17T12:38:12;15.60;1.00
14057;DHT22;7103;54.300;10.180;2023-03-17T12:40:49;15.40;1.00
14057;DHT22;7103;54.300;10.180;2023-03-17T12:49:36;15.90;1.00
14057;DHT22;7103;54.300;10.180;2023-03-17T12:54:33;16.10;1.00
14057;DHT22;7103;54.300;10.180;2023-03-17T12:57:09;16.10;99.90
14057;DHT22;7103;54.300;10.180;2023-03-17T12:59:41;16.10;99.90
14057;DHT22;7103;54.300;10.180;2023-03-17T13:04:53;16.30;99.90
14057;DHT22;7103;54.300;10.180;2023-03-17T13:07:32;16.30;99.90
14057;DHT22;7103;54.300;10.180;2023-03-17T13:15:47;16.40;99.90
14057;DHT22;7103;54.300;10.180;2023-03-17T13:23:56;16.70;99.90
14057;DHT22;7103;54.300;10.180;2023-03-17T13:27:01;16.70;99.90
14057;DHT22;7103;54.300;10.180;2023-03-17T13:32:30;16.70;99.90
14057;DHT22;7103;54.300;10.180;2023-03-17T13:37:34;16.70;99.90
14057;DHT22;7103;54.300;10.180;2023-03-17T13:45:43;16.60;99.90
14057;DHT22;7103;54.300;10.180;2023-03-17T13:53:49;16.70;99.90
14057;DHT22;7103;54.300;10.180;2023-03-17T14:01:34;16.60;99.90
14057;DHT22;7103;54.300;10.180;2023-03-17T14:04:04;16.60;99.90
14057;DHT22;7103;54.300;10.180;2023-03-17T14:06:36;16.60;99.90
14057;DHT22;7103;54.300;10.180;2023-03-17T14:11:50;16.50;99.90
14057;DHT22;7103;54.300;10.180;2023-03-17T14:17:12;16.60;99.90
14057;DHT22;7103;54.300;10.180;2023-03-17T14:19:40;16.60;99.90
14057;DHT22;7103;54.300;10.180;2023-03-17T14:22:24;16.50;99.90
14057;DHT22;7103;54.300;10.180;2023-03-17T14:24:53;16.50;99.90
14057;DHT22;7103;54.300;10.180;2023-03-17T14:27:22;16.60;99.90
14057;DHT22;7103;54.300;10.180;2023-03-17T14:29:50;16.50;99.90
14057;DHT22;7103;54.300;10.180;2023-03-17T14:32:19;16.50;99.90
14057;DHT22;7103;54.300;10.180;2023-03-17T14:34:53;16.40;99.90
14057;DHT22;7103;54.300;10.180;2023-03-17T14:37:21;16.30;99.90
14057;DHT22;7103;54.300;10.180;2023-03-17T14:39:53;16.20;99.90
14057;DHT22;7103;54.300;10.180;2023-03-17T14:42:30;16.20;99.90
14057;DHT22;7103;54.300;10.180;2023-03-17T14:45:06;16.20;99.90
14057;DHT22;7103;54.300;10.180;2023-03-17T14:47:38;16.20;99.90
14057;DHT22;7103;54.300;10.180;2023-03-17T14:50:17;16.10;99.90
14057;DHT22;7103;54.300;10.180;2023-03-17T14:52:48;16.00;99.90
14057;DHT22;7103;54.300;10.180;2023-03-17T14:55:17;16.00;99.90
14057;DHT22;7103;54.300;10.180;2023-03-17T14:57:50;16.00;99.90
14057;DHT22;7103;54.300;10.180;2023-03-17T15:03:01;16.10;99.90
14057;DHT22;7103;54.300;10.180;2023-03-17T15:08:37;16.20;99.90
14057;DHT22;7103;54.300;10.180;2023-03-17T15:11:05;16.20;99.90
14057;DHT22;7103;54.300;10.180;2023-03-17T15:13:36;16.10;99.90
14057;DHT22;7103;54.300;10.180;2023-03-17T15:18:42;16.10;99.90
14057;DHT22;7103;54.300;10.180;2023-03-17T15:21:42;16.20;99.90
14057;DHT22;7103;54.300;10.180;2023-03-17T15:24:38;16.20;99.90
14057;DHT22;7103;54.300;10.180;2023-03-17T15:27:16;16.20;99.90
14057;DHT22;7103;54.300;10.180;2023-03-17T15:29:43;16.20;99.90
14057;DHT22;7103;54.300;10.180;2023-03-17T15:32:13;16.10;99.90
14057;DHT22;7103;54.300;10.180;2023-03-17T15:34:41;16.00;99.90
14057;DHT22;7103;54.300;10.180;2023-03-17T15:39:42;16.00;99.90
14057;DHT22;7103;54.300;10.180;2023-03-17T15:42:09;16.00;99.90
14057;DHT22;7103;54.300;10.180;2023-03-17T15:44:36;16.00;99.90
14057;DHT22;7103;54.300;10.180;2023-03-17T15:47:03;15.90;99.90
14057;DHT22;7103;54.300;10.180;2023-03-17T15:49:30;15.90;99.90
14057;DHT22;7103;54.300;10.180;2023-03-17T15:51:57;15.80;1.00
14057;DHT22;7103;54.300;10.180;2023-03-17T15:54:24;15.80;1.00
14057;DHT22;7103;54.300;10.180;2023-03-17T15:56:51;15.80;1.00
14057;DHT22;7103;54.300;10.180;2023-03-17T15:59:18;15.80;1.00
14057;DHT22;7103;54.300;10.180;2023-03-17T16:01:45;15.80;1.00
14057;DHT22;7103;54.300;10.180;2023-03-17T16:04:12;15.60;1.00
14057;DHT22;7103;54.300;10.180;2023-03-17T16:06:39;15.60;1.00
14057;DHT22;7103;54.300;10.180;2023-03-17T16:09:15;15.60;1.00
14057;DHT22;7103;54.300;10.180;2023-03-17T16:11:43;15.40;1.00
14057;DHT22;7103;54.300;10.180;2023-03-17T16:14:10;15.40;1.00
14057;DHT22;7103;54.300;10.180;2023-03-17T16:16:39;15.30;1.00
14057;DHT22;7103;54.300;10.180;2023-03-17T16:19:16;15.30;1.00
14057;DHT22;7103;54.300;10.180;2023-03-17T16:21:44;15.20;1.00
14057;DHT22;7103;54.300;10.180;2023-03-17T16:24:20;15.10;1.00
14057;DHT22;7103;54.300;10.180;2023-03-17T16:26:49;15.10;1.00
14057;DHT22;7103;54.300;10.180;2023-03-17T16:29:17;15.00;1.00
14057;DHT22;7103;54.300;10.180;2023-03-17T16:31:47;15.00;1.00
14057;DHT22;7103;54.300;10.180;2023-03-17T16:34:15;14.90;1.00
14057;DHT22;7103;54.300;10.180;2023-03-17T16:36:43;14.90;1.00
14057;DHT22;7103;54.300;10.180;2023-03-17T16:39:22;14.80;1.00
14057;DHT22;7103;54.300;10.180;2023-03-17T16:41:49;14.90;1.00
14057;DHT22;7103;54.300;10.180;2023-03-17T16:44:18;14.80;1.00
14057;DHT22;7103;54.300;10.180;2023-03-17T16:46:46;14.70;1.00
14057;DHT22;7103;54.300;10.180;2023-03-17T16:49:15;14.60;1.00
14057;DHT22;7103;54.300;10.180;2023-03-17T16:51:43;14.60;1.00
14057;DHT22;7103;54.300;10.180;2023-03-17T16:54:11;14.50;1.00
14057;DHT22;7103;54.300;10.180;2023-03-17T16:56:39;14.50;1.00
14057;DHT22;7103;54.300;10.180;2023-03-17T16:59:18;14.50;1.00
14057;DHT22;7103;54.300;10.180;2023-03-17T17:01:46;14.50;1.00
14057;DHT22;7103;54.300;10.180;2023-03-17T17:04:12;14.40;1.00
14057;DHT22;7103;54.300;10.180;2023-03-17T17:06:39;14.20;1.00
14057;DHT22;7103;54.300;10.180;2023-03-17T17:09:06;14.20;1.00
14057;DHT22;7103;54.300;10.180;2023-03-17T17:11:33;14.10;1.00
14057;DHT22;7103;54.300;10.180;2023-03-17T17:14:00;14.20;1.00
14057;DHT22;7103;54.300;10.180;2023-03-17T17:16:29;14.20;1.00
14057;DHT22;7103;54.300;10.180;2023-03-17T17:18:57;14.20;1.00
14057;DHT22;7103;54.300;10.180;2023-03-17T17:21:25;14.10;1.00
14057;DHT22;7103;54.300;10.180;2023-03-17T17:23:52;13.90;1.00
14057;DHT22;7103;54.300;10.180;2023-03-17T17:26:20;13.70;1.00
14057;DHT22;7103;54.300;10.180;2023-03-17T17:28:47;13.60;1.00
14057;DHT22;7103;54.300;10.180;2023-03-17T17:31:14;13.50;1.00
14057;DHT22;7103;54.300;10.180;2023-03-17T17:33:41;13.30;1.00
14057;DHT22;7103;54.300;10.180;2023-03-17T17:36:13;13.20;1.00
14057;DHT22;7103;54.300;10.180;2023-03-17T17:38:41;13.20;1.00
14057;DHT22;7103;54.300;10.180;2023-03-17T17:41:09;13.10;1.00
14057;DHT22;7103;54.300;10.180;2023-03-17T17:43:37;13.00;1.00
14057;DHT22;7103;54.300;10.180;2023-03-17T17:46:10;12.90;1.00
14057;DHT22;7103;54.300;10.180;2023-03-17T17:48:37;12.80;1.00
14057;DHT22;7103;54.300;10.180;2023-03-17T17:51:04;12.70;1.00
14057;DHT22;7103;54.300;10.180;2023-03-17T17:53:31;12.60;1.00
14057;DHT22;7103;54.300;10.180;2023-03-17T17:55:58;12.60;1.00
14057;DHT22;7103;54.300;10.180;2023-03-17T17:58:25;12.50;1.00
14057;DHT22;7103;54.300;10.180;2023-03-17T18:00:52;12.50;1.00
14057;DHT22;7103;54.300;10.180;2023-03-17T18:03:24;12.50;1.00